sensor_id;sensor_type;location;lat;lon;timestamp;P1;durP1;ratioP1;P2;durP2;ratioP2
35326;SDS011;21436;52.348;20.928;2022-11-04T00:01:44;37.28;;;14.38;;
35326;SDS011;21436;52.348;20.928;2022-11-04T00:04:13;32.63;;;14.63;;
35326;SDS011;21436;52.348;20.928;2022-11-04T00:06:41;28.13;;;13.35;;
35326;SDS011;21436;52.348;20.928;2022-11-04T00:09:12;29.10;;;13.25;;
35326;SDS011;21436;52.348;20.928;2022-11-04T00:11:44;31.77;;;13.68;;
35326;SDS011;21436;52.348;20.928;2022-11-04T00:14:30;34.88;;;14.05;;
35326;SDS011;21436;52.348;20.928;2022-11-04T00:16:58;32.95;;;13.25;;
35326;SDS011;21436;52.348;20.928;2022-11-04T00:19:45;25.65;;;13.05;;
35326;SDS011;21436;52.348;20.928;2022-11-04T00:22:32;28.70;;;12.77;;
35326;SDS011;21436;52.348;20.928;2022-11-04T00:25:19;34.72;;;13.90;;
35326;SDS011;21436;52.348;20.928;2022-11-04T00:28:08;36.03;;;13.68;;
35326;SDS011;21436;52.348;20.928;2022-11-04T00:30:57;32.80;;;14.45;;
35326;SDS011;21436;52.348;20.928;2022-11-04T00:33:45;34.80;;;14.15;;
35326;SDS011;21436;52.348;20.928;2022-11-04T00:36:14;25.83;;;13.80;;
35326;SDS011;21436;52.348;20.928;2022-11-04T00:38:42;32.08;;;14.32;;
35326;SDS011;21436;52.348;20.928;2022-11-04T00:41:09;32.92;;;13.43;;
35326;SDS011;21436;52.348;20.928;2022-11-04T00:43:57;32.03;;;14.40;;
35326;SDS011;21436;52.348;20.928;2022-11-04T00:46:26;29.08;;;13.07;;
35326;SDS011;21436;52.348;20.928;2022-11-04T00:48:55;29.60;;;12.90;;
35326;SDS011;21436;52.348;20.928;2022-11-04T00:51:22;33.45;;;14.68;;
35326;SDS011;21436;52.348;20.928;2022-11-04T00:53:50;37.92;;;15.00;;
35326;SDS011;21436;52.348;20.928;2022-11-04T00:56:17;27.90;;;12.27;;
35326;SDS011;21436;52.348;20.928;2022-11-04T00:58:45;27.70;;;13.27;;
35326;SDS011;21436;52.348;20.928;2022-11-04T01:01:13;32.13;;;12.02;;
35326;SDS011;21436;52.348;20.928;2022-11-04T01:03:48;29.40;;;13.30;;
35326;SDS011;21436;52.348;20.928;2022-11-04T01:06:18;27.67;;;11.80;;
35326;SDS011;21436;52.348;20.928;2022-11-04T01:08:47;29.88;;;13.30;;
35326;SDS011;21436;52.348;20.928;2022-11-04T01:11:15;28.85;;;12.98;;
35326;SDS011;21436;52.348;20.928;2022-11-04T01:13:43;28.17;;;13.18;;
35326;SDS011;21436;52.348;20.928;2022-11-04T01:16:10;28.95;;;12.70;;
35326;SDS011;21436;52.348;20.928;2022-11-04T01:18:39;23.75;;;12.60;;
35326;SDS011;21436;52.348;20.928;2022-11-04T01:21:07;30.85;;;12.15;;
35326;SDS011;21436;52.348;20.928;2022-11-04T01:23:35;26.15;;;12.10;;
35326;SDS011;21436;52.348;20.928;2022-11-04T01:26:04;29.00;;;12.65;;
35326;SDS011;21436;52.348;20.928;2022-11-04T01:28:32;28.75;;;12.85;;
35326;SDS011;21436;52.348;20.928;2022-11-04T01:33:51;32.42;;;13.38;;
35326;SDS011;21436;52.348;20.928;2022-11-04T01:36:20;32.47;;;12.95;;
35326;SDS011;21436;52.348;20.928;2022-11-04T01:38:49;30.42;;;12.98;;
35326;SDS011;21436;52.348;20.928;2022-11-04T01:41:20;31.60;;;12.65;;
35326;SDS011;21436;52.348;20.928;2022-11-04T01:46:57;27.85;;;13.23;;
35326;SDS011;21436;52.348;20.928;2022-11-04T01:49:26;34.55;;;13.85;;
35326;SDS011;21436;52.348;20.928;2022-11-04T01:51:58;28.40;;;13.57;;
35326;SDS011;21436;52.348;20.928;2022-11-04T01:54:28;30.65;;;13.73;;
35326;SDS011;21436;52.348;20.928;2022-11-04T01:56:56;29.88;;;13.68;;
35326;SDS011;21436;52.348;20.928;2022-11-04T01:59:27;33.72;;;14.07;;
35326;SDS011;21436;52.348;20.928;2022-11-04T02:01:56;25.23;;;12.32;;
35326;SDS011;21436;52.348;20.928;2022-11-04T02:04:25;30.35;;;11.90;;
35326;SDS011;21436;52.348;20.928;2022-11-04T02:06:56;24.17;;;12.00;;
35326;SDS011;21436;52.348;20.928;2022-11-04T02:09:29;27.85;;;12.10;;
35326;SDS011;21436;52.348;20.928;2022-11-04T02:11:57;23.23;;;11.90;;
35326;SDS011;21436;52.348;20.928;2022-11-04T02:14:44;30.02;;;12.40;;
35326;SDS011;21436;52.348;20.928;2022-11-04T02:17:21;32.78;;;11.30;;
35326;SDS011;21436;52.348;20.928;2022-11-04T02:28:22;21.90;;;11.18;;
35326;SDS011;21436;52.348;20.928;2022-11-04T02:30:53;25.10;;;11.15;;
35326;SDS011;21436;52.348;20.928;2022-11-04T02:33:30;27.40;;;11.75;;
35326;SDS011;21436;52.348;20.928;2022-11-04T02:36:08;24.77;;;11.25;;
35326;SDS011;21436;52.348;20.928;2022-11-04T02:41:45;26.90;;;12.40;;
35326;SDS011;21436;52.348;20.928;2022-11-04T02:44:39;33.53;;;11.73;;
35326;SDS011;21436;52.348;20.928;2022-11-04T02:47:12;24.70;;;10.77;;
35326;SDS011;21436;52.348;20.928;2022-11-04T02:50:02;26.38;;;10.57;;
35326;SDS011;21436;52.348;20.928;2022-11-04T02:52:42;21.93;;;9.13;;
35326;SDS011;21436;52.348;20.928;2022-11-04T02:58:14;22.85;;;10.65;;
35326;SDS011;21436;52.348;20.928;2022-11-04T03:00:44;23.23;;;10.82;;
35326;SDS011;21436;52.348;20.928;2022-11-04T03:03:14;24.30;;;10.38;;
35326;SDS011;21436;52.348;20.928;2022-11-04T03:05:45;28.00;;;10.98;;
35326;SDS011;21436;52.348;20.928;2022-11-04T03:08:20;24.75;;;10.13;;
35326;SDS011;21436;52.348;20.928;2022-11-04T03:10:53;22.05;;;9.48;;
35326;SDS011;21436;52.348;20.928;2022-11-04T03:13:35;23.50;;;9.75;;
35326;SDS011;21436;52.348;20.928;2022-11-04T03:16:07;22.15;;;9.38;;
35326;SDS011;21436;52.348;20.928;2022-11-04T03:18:53;16.17;;;8.95;;
35326;SDS011;21436;52.348;20.928;2022-11-04T03:24:31;19.08;;;9.38;;
35326;SDS011;21436;52.348;20.928;2022-11-04T03:29:32;23.98;;;10.75;;
35326;SDS011;21436;52.348;20.928;2022-11-04T03:32:23;21.15;;;9.38;;
35326;SDS011;21436;52.348;20.928;2022-11-04T03:35:17;27.45;;;10.88;;
35326;SDS011;21436;52.348;20.928;2022-11-04T03:37:44;21.65;;;8.88;;
35326;SDS011;21436;52.348;20.928;2022-11-04T03:40:14;21.20;;;8.75;;
35326;SDS011;21436;52.348;20.928;2022-11-04T03:42:47;25.20;;;10.43;;
35326;SDS011;21436;52.348;20.928;2022-11-04T03:45:19;26.77;;;10.35;;
35326;SDS011;21436;52.348;20.928;2022-11-04T03:47:46;25.38;;;9.57;;
35326;SDS011;21436;52.348;20.928;2022-11-04T03:55:14;19.38;;;8.45;;
35326;SDS011;21436;52.348;20.928;2022-11-04T03:57:47;21.13;;;9.25;;
35326;SDS011;21436;52.348;20.928;2022-11-04T04:00:24;17.80;;;8.27;;
35326;SDS011;21436;52.348;20.928;2022-11-04T04:05:42;23.63;;;9.35;;
35326;SDS011;21436;52.348;20.928;2022-11-04T04:08:22;22.95;;;8.65;;
35326;SDS011;21436;52.348;20.928;2022-11-04T04:16:26;27.83;;;9.77;;
35326;SDS011;21436;52.348;20.928;2022-11-04T04:18:58;20.48;;;9.50;;
35326;SDS011;21436;52.348;20.928;2022-11-04T04:21:29;22.48;;;8.88;;
35326;SDS011;21436;52.348;20.928;2022-11-04T04:23:58;22.17;;;9.05;;
35326;SDS011;21436;52.348;20.928;2022-11-04T04:26:47;20.95;;;9.82;;
35326;SDS011;21436;52.348;20.928;2022-11-04T04:29:33;25.98;;;9.88;;
35326;SDS011;21436;52.348;20.928;2022-11-04T04:32:02;17.67;;;8.32;;
35326;SDS011;21436;52.348;20.928;2022-11-04T04:34:30;21.92;;;9.65;;
35326;SDS011;21436;52.348;20.928;2022-11-04T04:37:03;23.20;;;9.90;;
35326;SDS011;21436;52.348;20.928;2022-11-04T04:42:50;22.17;;;10.50;;
35326;SDS011;21436;52.348;20.928;2022-11-04T04:45:37;22.92;;;9.30;;
35326;SDS011;21436;52.348;20.928;2022-11-04T04:48:08;17.40;;;8.40;;
35326;SDS011;21436;52.348;20.928;2022-11-04T04:50:41;24.75;;;9.93;;
35326;SDS011;21436;52.348;20.928;2022-11-04T04:53:11;20.67;;;8.77;;
35326;SDS011;21436;52.348;20.928;2022-11-04T04:55:38;20.00;;;9.73;;
35326;SDS011;21436;52.348;20.928;2022-11-04T04:58:08;22.00;;;11.02;;
35326;SDS011;21436;52.348;20.928;2022-11-04T05:00:36;24.00;;;9.88;;
35326;SDS011;21436;52.348;20.928;2022-11-04T05:03:03;24.27;;;10.63;;
35326;SDS011;21436;52.348;20.928;2022-11-04T05:05:31;18.33;;;8.95;;
35326;SDS011;21436;52.348;20.928;2022-11-04T05:08:05;22.55;;;9.55;;
35326;SDS011;21436;52.348;20.928;2022-11-04T05:10:34;22.48;;;9.63;;
35326;SDS011;21436;52.348;20.928;2022-11-04T05:13:02;24.50;;;10.32;;
35326;SDS011;21436;52.348;20.928;2022-11-04T05:15:48;24.10;;;9.65;;
35326;SDS011;21436;52.348;20.928;2022-11-04T05:18:15;23.20;;;9.20;;
35326;SDS011;21436;52.348;20.928;2022-11-04T05:20:43;21.48;;;9.60;;
35326;SDS011;21436;52.348;20.928;2022-11-04T05:23:11;21.45;;;9.68;;
35326;SDS011;21436;52.348;20.928;2022-11-04T05:25:40;18.55;;;9.43;;
35326;SDS011;21436;52.348;20.928;2022-11-04T05:28:08;18.60;;;9.25;;
35326;SDS011;21436;52.348;20.928;2022-11-04T05:30:36;18.67;;;9.00;;
35326;SDS011;21436;52.348;20.928;2022-11-04T05:33:04;19.75;;;9.15;;
35326;SDS011;21436;52.348;20.928;2022-11-04T05:35:32;14.90;;;8.38;;
35326;SDS011;21436;52.348;20.928;2022-11-04T05:38:01;23.48;;;9.18;;
35326;SDS011;21436;52.348;20.928;2022-11-04T05:40:28;25.38;;;9.80;;
35326;SDS011;21436;52.348;20.928;2022-11-04T05:42:57;20.10;;;8.98;;
35326;SDS011;21436;52.348;20.928;2022-11-04T05:45:26;22.45;;;9.70;;
35326;SDS011;21436;52.348;20.928;2022-11-04T05:48:01;20.67;;;9.70;;
35326;SDS011;21436;52.348;20.928;2022-11-04T05:50:30;20.83;;;9.25;;
35326;SDS011;21436;52.348;20.928;2022-11-04T05:52:59;21.40;;;9.48;;
35326;SDS011;21436;52.348;20.928;2022-11-04T05:55:27;20.45;;;9.80;;
35326;SDS011;21436;52.348;20.928;2022-11-04T05:57:54;25.55;;;8.85;;
35326;SDS011;21436;52.348;20.928;2022-11-04T06:00:24;19.15;;;8.68;;
35326;SDS011;21436;52.348;20.928;2022-11-04T06:02:53;21.08;;;8.38;;
35326;SDS011;21436;52.348;20.928;2022-11-04T06:05:23;18.40;;;8.18;;
35326;SDS011;21436;52.348;20.928;2022-11-04T06:07:51;21.23;;;7.88;;
35326;SDS011;21436;52.348;20.928;2022-11-04T06:10:19;23.55;;;9.38;;
35326;SDS011;21436;52.348;20.928;2022-11-04T06:12:46;25.17;;;9.52;;
35326;SDS011;21436;52.348;20.928;2022-11-04T06:15:14;16.58;;;7.82;;
35326;SDS011;21436;52.348;20.928;2022-11-04T06:17:41;22.88;;;7.50;;
35326;SDS011;21436;52.348;20.928;2022-11-04T06:20:09;21.90;;;8.63;;
35326;SDS011;21436;52.348;20.928;2022-11-04T06:22:36;21.63;;;8.38;;
35326;SDS011;21436;52.348;20.928;2022-11-04T06:25:04;20.42;;;8.93;;
35326;SDS011;21436;52.348;20.928;2022-11-04T06:27:31;20.92;;;8.95;;
35326;SDS011;21436;52.348;20.928;2022-11-04T06:29:59;14.55;;;7.82;;
35326;SDS011;21436;52.348;20.928;2022-11-04T06:32:26;22.10;;;8.82;;
35326;SDS011;21436;52.348;20.928;2022-11-04T06:34:53;26.60;;;8.55;;
35326;SDS011;21436;52.348;20.928;2022-11-04T06:37:21;19.10;;;8.52;;
35326;SDS011;21436;52.348;20.928;2022-11-04T06:39:49;16.80;;;7.43;;
35326;SDS011;21436;52.348;20.928;2022-11-04T06:42:16;19.25;;;9.23;;
35326;SDS011;21436;52.348;20.928;2022-11-04T06:44:44;19.17;;;8.32;;
35326;SDS011;21436;52.348;20.928;2022-11-04T06:47:11;18.88;;;8.25;;
35326;SDS011;21436;52.348;20.928;2022-11-04T06:49:39;17.15;;;8.38;;
35326;SDS011;21436;52.348;20.928;2022-11-04T06:52:06;14.68;;;7.72;;
35326;SDS011;21436;52.348;20.928;2022-11-04T06:54:34;16.27;;;8.15;;
35326;SDS011;21436;52.348;20.928;2022-11-04T06:57:02;19.30;;;8.48;;
35326;SDS011;21436;52.348;20.928;2022-11-04T06:59:29;20.90;;;9.27;;
35326;SDS011;21436;52.348;20.928;2022-11-04T07:01:57;18.90;;;8.23;;
35326;SDS011;21436;52.348;20.928;2022-11-04T07:04:25;20.48;;;8.50;;
35326;SDS011;21436;52.348;20.928;2022-11-04T07:06:53;20.77;;;9.35;;
35326;SDS011;21436;52.348;20.928;2022-11-04T07:09:20;22.38;;;8.98;;
35326;SDS011;21436;52.348;20.928;2022-11-04T07:11:48;21.92;;;9.20;;
35326;SDS011;21436;52.348;20.928;2022-11-04T07:14:15;18.90;;;9.05;;
35326;SDS011;21436;52.348;20.928;2022-11-04T07:16:43;26.02;;;8.73;;
35326;SDS011;21436;52.348;20.928;2022-11-04T07:19:10;16.45;;;9.20;;
35326;SDS011;21436;52.348;20.928;2022-11-04T07:21:38;23.88;;;9.70;;
35326;SDS011;21436;52.348;20.928;2022-11-04T07:24:06;14.48;;;8.70;;
35326;SDS011;21436;52.348;20.928;2022-11-04T07:26:33;26.88;;;9.98;;
35326;SDS011;21436;52.348;20.928;2022-11-04T07:29:01;23.60;;;9.20;;
35326;SDS011;21436;52.348;20.928;2022-11-04T07:31:28;18.50;;;10.00;;
35326;SDS011;21436;52.348;20.928;2022-11-04T07:33:56;23.60;;;9.82;;
35326;SDS011;21436;52.348;20.928;2022-11-04T07:36:24;26.33;;;10.13;;
35326;SDS011;21436;52.348;20.928;2022-11-04T07:38:51;20.67;;;9.52;;
35326;SDS011;21436;52.348;20.928;2022-11-04T07:41:19;28.63;;;10.85;;
35326;SDS011;21436;52.348;20.928;2022-11-04T07:43:47;29.83;;;10.52;;
35326;SDS011;21436;52.348;20.928;2022-11-04T07:46:18;24.50;;;9.82;;
35326;SDS011;21436;52.348;20.928;2022-11-04T07:48:46;27.25;;;9.93;;
35326;SDS011;21436;52.348;20.928;2022-11-04T07:51:15;21.60;;;9.32;;
35326;SDS011;21436;52.348;20.928;2022-11-04T07:53:44;17.50;;;9.55;;
35326;SDS011;21436;52.348;20.928;2022-11-04T07:56:12;20.10;;;9.20;;
35326;SDS011;21436;52.348;20.928;2022-11-04T07:58:40;29.02;;;10.10;;
35326;SDS011;21436;52.348;20.928;2022-11-04T08:01:09;25.65;;;10.35;;
35326;SDS011;21436;52.348;20.928;2022-11-04T08:03:42;22.67;;;9.50;;
35326;SDS011;21436;52.348;20.928;2022-11-04T08:06:11;21.65;;;10.27;;
35326;SDS011;21436;52.348;20.928;2022-11-04T08:08:40;23.50;;;9.85;;
35326;SDS011;21436;52.348;20.928;2022-11-04T08:11:11;20.63;;;9.50;;
35326;SDS011;21436;52.348;20.928;2022-11-04T08:13:44;19.75;;;9.25;;
35326;SDS011;21436;52.348;20.928;2022-11-04T08:16:13;17.13;;;8.63;;
35326;SDS011;21436;52.348;20.928;2022-11-04T08:18:42;23.15;;;10.30;;
35326;SDS011;21436;52.348;20.928;2022-11-04T08:21:11;21.30;;;9.85;;
35326;SDS011;21436;52.348;20.928;2022-11-04T08:23:39;25.60;;;8.88;;
35326;SDS011;21436;52.348;20.928;2022-11-04T08:26:09;19.60;;;9.93;;
35326;SDS011;21436;52.348;20.928;2022-11-04T08:28:38;23.30;;;9.68;;
35326;SDS011;21436;52.348;20.928;2022-11-04T08:33:41;21.98;;;9.82;;
35326;SDS011;21436;52.348;20.928;2022-11-04T08:36:10;20.27;;;10.23;;
35326;SDS011;21436;52.348;20.928;2022-11-04T08:38:43;20.45;;;9.73;;
35326;SDS011;21436;52.348;20.928;2022-11-04T08:41:12;19.13;;;9.15;;
35326;SDS011;21436;52.348;20.928;2022-11-04T08:43:41;23.38;;;10.00;;
35326;SDS011;21436;52.348;20.928;2022-11-04T08:46:09;26.00;;;10.85;;
35326;SDS011;21436;52.348;20.928;2022-11-04T08:48:37;21.17;;;9.32;;
35326;SDS011;21436;52.348;20.928;2022-11-04T08:51:06;23.42;;;9.13;;
35326;SDS011;21436;52.348;20.928;2022-11-04T08:53:42;20.15;;;9.52;;
35326;SDS011;21436;52.348;20.928;2022-11-04T08:56:21;22.27;;;10.05;;
35326;SDS011;21436;52.348;20.928;2022-11-04T08:58:51;21.85;;;9.27;;
35326;SDS011;21436;52.348;20.928;2022-11-04T09:01:20;23.10;;;10.18;;
35326;SDS011;21436;52.348;20.928;2022-11-04T09:03:48;21.73;;;9.52;;
35326;SDS011;21436;52.348;20.928;2022-11-04T09:06:18;28.88;;;10.63;;
35326;SDS011;21436;52.348;20.928;2022-11-04T09:08:56;23.88;;;10.45;;
35326;SDS011;21436;52.348;20.928;2022-11-04T09:11:33;26.20;;;10.18;;
35326;SDS011;21436;52.348;20.928;2022-11-04T09:14:04;16.15;;;8.63;;
35326;SDS011;21436;52.348;20.928;2022-11-04T09:16:33;16.08;;;8.80;;
35326;SDS011;21436;52.348;20.928;2022-11-04T09:19:02;24.27;;;9.90;;
35326;SDS011;21436;52.348;20.928;2022-11-04T09:21:30;21.27;;;9.23;;
35326;SDS011;21436;52.348;20.928;2022-11-04T09:23:57;18.20;;;9.35;;
35326;SDS011;21436;52.348;20.928;2022-11-04T09:26:25;24.13;;;9.65;;
35326;SDS011;21436;52.348;20.928;2022-11-04T09:28:53;20.73;;;10.23;;
35326;SDS011;21436;52.348;20.928;2022-11-04T09:31:22;21.40;;;9.80;;
35326;SDS011;21436;52.348;20.928;2022-11-04T09:33:50;20.00;;;9.18;;
35326;SDS011;21436;52.348;20.928;2022-11-04T09:36:17;26.00;;;10.80;;
35326;SDS011;21436;52.348;20.928;2022-11-04T09:38:45;22.58;;;10.20;;
35326;SDS011;21436;52.348;20.928;2022-11-04T09:46:51;23.92;;;10.05;;
35326;SDS011;21436;52.348;20.928;2022-11-04T09:49:20;29.10;;;9.98;;
35326;SDS011;21436;52.348;20.928;2022-11-04T09:51:47;21.35;;;10.68;;
35326;SDS011;21436;52.348;20.928;2022-11-04T09:54:55;22.60;;;10.02;;
35326;SDS011;21436;52.348;20.928;2022-11-04T09:57:35;20.88;;;10.35;;
35326;SDS011;21436;52.348;20.928;2022-11-04T10:00:03;21.05;;;9.20;;
35326;SDS011;21436;52.348;20.928;2022-11-04T10:22:14;23.05;;;9.15;;
35326;SDS011;21436;52.348;20.928;2022-11-04T10:27:42;18.77;;;9.65;;
35326;SDS011;21436;52.348;20.928;2022-11-04T10:35:44;20.33;;;9.00;;
35326;SDS011;21436;52.348;20.928;2022-11-04T10:38:18;24.17;;;10.32;;
35326;SDS011;21436;52.348;20.928;2022-11-04T10:40:49;22.48;;;9.35;;
35326;SDS011;21436;52.348;20.928;2022-11-04T10:43:31;20.80;;;9.95;;
35326;SDS011;21436;52.348;20.928;2022-11-04T10:48:38;26.45;;;9.88;;
35326;SDS011;21436;52.348;20.928;2022-11-04T10:51:21;21.23;;;9.25;;
35326;SDS011;21436;52.348;20.928;2022-11-04T10:53:54;21.55;;;9.88;;
35326;SDS011;21436;52.348;20.928;2022-11-04T10:56:35;24.17;;;10.50;;
35326;SDS011;21436;52.348;20.928;2022-11-04T10:59:12;30.02;;;9.38;;
35326;SDS011;21436;52.348;20.928;2022-11-04T11:02:02;20.75;;;10.27;;
35326;SDS011;21436;52.348;20.928;2022-11-04T11:04:31;23.13;;;9.80;;
35326;SDS011;21436;52.348;20.928;2022-11-04T11:07:06;20.70;;;9.73;;
35326;SDS011;21436;52.348;20.928;2022-11-04T11:12:20;17.95;;;8.63;;
35326;SDS011;21436;52.348;20.928;2022-11-04T11:15:26;20.58;;;8.85;;
35326;SDS011;21436;52.348;20.928;2022-11-04T11:20:34;18.58;;;9.32;;
35326;SDS011;21436;52.348;20.928;2022-11-04T11:23:04;17.92;;;9.93;;
35326;SDS011;21436;52.348;20.928;2022-11-04T11:25:37;18.80;;;8.65;;
35326;SDS011;21436;52.348;20.928;2022-11-04T11:28:09;19.08;;;9.32;;
35326;SDS011;21436;52.348;20.928;2022-11-04T11:30:59;19.55;;;8.20;;
35326;SDS011;21436;52.348;20.928;2022-11-04T11:33:31;18.73;;;8.68;;
35326;SDS011;21436;52.348;20.928;2022-11-04T11:36:22;17.65;;;9.30;;
35326;SDS011;21436;52.348;20.928;2022-11-04T11:38:53;23.85;;;9.75;;
35326;SDS011;21436;52.348;20.928;2022-11-04T11:41:34;25.95;;;10.45;;
35326;SDS011;21436;52.348;20.928;2022-11-04T11:44:29;17.00;;;9.10;;
35326;SDS011;21436;52.348;20.928;2022-11-04T11:47:17;20.63;;;9.10;;
35326;SDS011;21436;52.348;20.928;2022-11-04T11:52:39;16.23;;;8.50;;
35326;SDS011;21436;52.348;20.928;2022-11-04T12:01:41;17.10;;;8.80;;
35326;SDS011;21436;52.348;20.928;2022-11-04T12:03:52;18.15;;;8.27;;
35326;SDS011;21436;52.348;20.928;2022-11-04T12:06:46;16.27;;;8.30;;
35326;SDS011;21436;52.348;20.928;2022-11-04T12:15:21;18.58;;;8.20;;
35326;SDS011;21436;52.348;20.928;2022-11-04T12:18:06;17.58;;;8.45;;
35326;SDS011;21436;52.348;20.928;2022-11-04T12:21:08;12.25;;;7.47;;
35326;SDS011;21436;52.348;20.928;2022-11-04T12:23:45;14.80;;;7.90;;
35326;SDS011;21436;52.348;20.928;2022-11-04T12:26:28;21.08;;;9.02;;
35326;SDS011;21436;52.348;20.928;2022-11-04T12:40:28;16.08;;;8.02;;
35326;SDS011;21436;52.348;20.928;2022-11-04T12:58:51;18.95;;;8.63;;
35326;SDS011;21436;52.348;20.928;2022-11-04T13:01:33;17.52;;;7.50;;
35326;SDS011;21436;52.348;20.928;2022-11-04T13:04:16;21.83;;;8.70;;
35326;SDS011;21436;52.348;20.928;2022-11-04T13:06:48;22.25;;;8.35;;
35326;SDS011;21436;52.348;20.928;2022-11-04T13:11:53;12.10;;;6.78;;
35326;SDS011;21436;52.348;20.928;2022-11-04T13:14:23;18.05;;;7.75;;
35326;SDS011;21436;52.348;20.928;2022-11-04T13:16:57;15.68;;;7.93;;
35326;SDS011;21436;52.348;20.928;2022-11-04T13:22:19;18.02;;;7.93;;
35326;SDS011;21436;52.348;20.928;2022-11-04T13:24:57;17.63;;;7.80;;
35326;SDS011;21436;52.348;20.928;2022-11-04T13:27:34;14.65;;;7.53;;
35326;SDS011;21436;52.348;20.928;2022-11-04T13:32:46;14.00;;;8.43;;
35326;SDS011;21436;52.348;20.928;2022-11-04T13:38:22;14.68;;;8.40;;
35326;SDS011;21436;52.348;20.928;2022-11-04T13:43:50;16.75;;;7.35;;
35326;SDS011;21436;52.348;20.928;2022-11-04T13:46:20;15.23;;;8.05;;
35326;SDS011;21436;52.348;20.928;2022-11-04T13:51:59;18.02;;;8.32;;
35326;SDS011;21436;52.348;20.928;2022-11-04T13:57:20;18.75;;;9.38;;
35326;SDS011;21436;52.348;20.928;2022-11-04T14:02:36;17.67;;;8.70;;
35326;SDS011;21436;52.348;20.928;2022-11-04T14:18:52;17.83;;;8.43;;
35326;SDS011;21436;52.348;20.928;2022-11-04T14:21:23;14.00;;;8.35;;
35326;SDS011;21436;52.348;20.928;2022-11-04T14:23:53;21.13;;;8.70;;
35326;SDS011;21436;52.348;20.928;2022-11-04T14:26:39;19.40;;;8.27;;
35326;SDS011;21436;52.348;20.928;2022-11-04T14:29:16;18.40;;;9.13;;
35326;SDS011;21436;52.348;20.928;2022-11-04T14:31:47;19.38;;;8.10;;
35326;SDS011;21436;52.348;20.928;2022-11-04T14:34:30;21.75;;;8.73;;
35326;SDS011;21436;52.348;20.928;2022-11-04T14:37:05;19.27;;;8.05;;
35326;SDS011;21436;52.348;20.928;2022-11-04T14:39:46;17.05;;;8.10;;
35326;SDS011;21436;52.348;20.928;2022-11-04T14:42:41;17.02;;;8.13;;
35326;SDS011;21436;52.348;20.928;2022-11-04T14:45:14;18.38;;;7.97;;
35326;SDS011;21436;52.348;20.928;2022-11-04T14:47:45;15.75;;;7.55;;
35326;SDS011;21436;52.348;20.928;2022-11-04T14:50:17;15.90;;;7.57;;
35326;SDS011;21436;52.348;20.928;2022-11-04T14:52:57;17.75;;;6.45;;
35326;SDS011;21436;52.348;20.928;2022-11-04T14:55:26;18.83;;;8.02;;
35326;SDS011;21436;52.348;20.928;2022-11-04T14:58:22;14.80;;;7.75;;
35326;SDS011;21436;52.348;20.928;2022-11-04T15:00:54;18.88;;;7.78;;
35326;SDS011;21436;52.348;20.928;2022-11-04T15:03:35;22.50;;;7.72;;
35326;SDS011;21436;52.348;20.928;2022-11-04T15:06:26;20.30;;;8.30;;
35326;SDS011;21436;52.348;20.928;2022-11-04T15:12:13;26.58;;;8.80;;
35326;SDS011;21436;52.348;20.928;2022-11-04T15:15:22;18.10;;;8.38;;
35326;SDS011;21436;52.348;20.928;2022-11-04T15:17:55;23.48;;;9.18;;
35326;SDS011;21436;52.348;20.928;2022-11-04T15:20:25;22.67;;;8.90;;
35326;SDS011;21436;52.348;20.928;2022-11-04T15:22:57;22.67;;;11.77;;
35326;SDS011;21436;52.348;20.928;2022-11-04T15:25:26;22.02;;;11.98;;
35326;SDS011;21436;52.348;20.928;2022-11-04T15:27:54;22.67;;;11.05;;
35326;SDS011;21436;52.348;20.928;2022-11-04T15:30:24;20.92;;;9.38;;
35326;SDS011;21436;52.348;20.928;2022-11-04T15:32:59;22.92;;;9.35;;
35326;SDS011;21436;52.348;20.928;2022-11-04T15:35:29;21.95;;;9.32;;
35326;SDS011;21436;52.348;20.928;2022-11-04T15:37:59;17.48;;;10.15;;
35326;SDS011;21436;52.348;20.928;2022-11-04T15:40:27;19.63;;;9.82;;
35326;SDS011;21436;52.348;20.928;2022-11-04T15:42:56;18.75;;;9.63;;
35326;SDS011;21436;52.348;20.928;2022-11-04T15:45:28;21.88;;;10.77;;
35326;SDS011;21436;52.348;20.928;2022-11-04T15:56:16;17.80;;;9.27;;
35326;SDS011;21436;52.348;20.928;2022-11-04T16:01:14;22.92;;;10.00;;
35326;SDS011;21436;52.348;20.928;2022-11-04T16:04:16;21.00;;;9.43;;
35326;SDS011;21436;52.348;20.928;2022-11-04T16:06:38;19.35;;;10.55;;
35326;SDS011;21436;52.348;20.928;2022-11-04T16:11:36;22.85;;;9.35;;
35326;SDS011;21436;52.348;20.928;2022-11-04T16:16:52;23.20;;;9.80;;
35326;SDS011;21436;52.348;20.928;2022-11-04T16:19:21;23.55;;;9.65;;
35326;SDS011;21436;52.348;20.928;2022-11-04T16:22:00;20.65;;;9.82;;
35326;SDS011;21436;52.348;20.928;2022-11-04T16:24:32;17.85;;;9.30;;
35326;SDS011;21436;52.348;20.928;2022-11-04T16:27:00;23.58;;;10.77;;
35326;SDS011;21436;52.348;20.928;2022-11-04T16:29:34;22.75;;;10.80;;
35326;SDS011;21436;52.348;20.928;2022-11-04T16:32:16;20.10;;;10.13;;
35326;SDS011;21436;52.348;20.928;2022-11-04T16:34:58;17.63;;;10.05;;
35326;SDS011;21436;52.348;20.928;2022-11-04T16:37:27;19.77;;;10.48;;
35326;SDS011;21436;52.348;20.928;2022-11-04T16:39:56;21.85;;;10.43;;
35326;SDS011;21436;52.348;20.928;2022-11-04T16:42:23;25.05;;;10.95;;
35326;SDS011;21436;52.348;20.928;2022-11-04T16:44:53;26.70;;;11.63;;
35326;SDS011;21436;52.348;20.928;2022-11-04T16:47:22;24.48;;;10.80;;
35326;SDS011;21436;52.348;20.928;2022-11-04T16:49:52;21.75;;;11.30;;
35326;SDS011;21436;52.348;20.928;2022-11-04T16:52:22;19.45;;;11.80;;
35326;SDS011;21436;52.348;20.928;2022-11-04T16:54:51;21.87;;;11.43;;
35326;SDS011;21436;52.348;20.928;2022-11-04T16:57:23;33.10;;;14.18;;
35326;SDS011;21436;52.348;20.928;2022-11-04T16:59:51;28.05;;;13.02;;
35326;SDS011;21436;52.348;20.928;2022-11-04T17:02:22;28.42;;;12.07;;
35326;SDS011;21436;52.348;20.928;2022-11-04T17:04:57;23.30;;;11.65;;
35326;SDS011;21436;52.348;20.928;2022-11-04T17:07:25;24.88;;;13.90;;
35326;SDS011;21436;52.348;20.928;2022-11-04T17:10:15;29.38;;;13.10;;
35326;SDS011;21436;52.348;20.928;2022-11-04T17:12:45;25.40;;;13.00;;
35326;SDS011;21436;52.348;20.928;2022-11-04T17:15:14;21.95;;;11.80;;
35326;SDS011;21436;52.348;20.928;2022-11-04T17:17:42;28.27;;;12.52;;
35326;SDS011;21436;52.348;20.928;2022-11-04T17:20:10;34.47;;;12.02;;
35326;SDS011;21436;52.348;20.928;2022-11-04T17:22:43;24.25;;;13.40;;
35326;SDS011;21436;52.348;20.928;2022-11-04T17:25:22;23.23;;;12.32;;
35326;SDS011;21436;52.348;20.928;2022-11-04T17:27:51;22.95;;;11.65;;
35326;SDS011;21436;52.348;20.928;2022-11-04T17:30:21;27.58;;;12.57;;
35326;SDS011;21436;52.348;20.928;2022-11-04T17:32:49;24.10;;;11.55;;
35326;SDS011;21436;52.348;20.928;2022-11-04T17:35:17;28.55;;;11.73;;
35326;SDS011;21436;52.348;20.928;2022-11-04T17:37:44;22.17;;;11.80;;
35326;SDS011;21436;52.348;20.928;2022-11-04T17:40:14;27.42;;;12.77;;
35326;SDS011;21436;52.348;20.928;2022-11-04T17:42:43;24.38;;;12.50;;
35326;SDS011;21436;52.348;20.928;2022-11-04T17:45:37;31.48;;;12.95;;
35326;SDS011;21436;52.348;20.928;2022-11-04T17:48:07;30.27;;;12.00;;
35326;SDS011;21436;52.348;20.928;2022-11-04T17:50:37;25.08;;;12.02;;
35326;SDS011;21436;52.348;20.928;2022-11-04T17:53:05;29.60;;;13.80;;